Bow Clipper — LAUU4 — position and weather

sailwx.info

Track history (hours):
 
Tides and Currents Weather Stations Pressure Air Temp Water Temp Dewpoint Dewpoint Depression Visibility Wind Speed Wind Dir Waves Ship Positions

Bow Clipper

Last reported at 2016-Feb-12 03:32 UTC. Time now 2016-Feb-12 03:37 UTC.
Position N 29°07' W 094°31'.

Length 188 m; draft 6.1 m.

Type: Ship (hazmat cat B). MMSI: 258946991.

Date/timePositionNaut miles runAvg speedWind from/ knotsBaromVisibWave heightAir tempDewpointWater temp
2016-Feb-12 03:32N 29°07' W 094°31'0 0.0
2016-Feb-12 02:28N 29°07' W 094°31'0 0.0
2016-Feb-12 01:33N 29°07' W 094°31'5 0.4
2016-Feb-11 12:21N 29°12' W 094°31'911.2
2016-Feb-11 11:32N 29°18' W 094°38'1110.6
2016-Feb-11 10:30N 29°23' W 094°49'1010.9
2016-Feb-11 09:33N 29°33' W 094°54'7 7.3
2016-Feb-11 08:33N 29°37' W 095°01'0 0.2
2016-Feb-11 07:32N 29°37' W 095°01'0 0.0
2016-Feb-11 06:33N 29°37' W 095°01'0 0.0
2016-Feb-11 05:32N 29°37' W 095°01'0 0.0
2016-Feb-11 04:33N 29°37' W 095°01'0 0.0
2016-Feb-11 03:33N 29°37' W 095°01'0 0.0
2016-Feb-11 02:30N 29°37' W 095°01'0 0.0
2016-Feb-11 01:33N 29°37' W 095°01'0 0.0
2016-Feb-11 00:33N 29°37' W 095°01'0 0.0
2016-Feb-10 23:33N 29°37' W 095°01'0 0.0
2016-Feb-10 22:33N 29°37' W 095°01'0 0.0
2016-Feb-10 21:33N 29°37' W 095°01'0 0.0
2016-Feb-10 20:33N 29°37' W 095°01'0 0.0
2016-Feb-10 19:30N 29°37' W 095°01'0 0.0
2016-Feb-10 18:33N 29°37' W 095°01'0 0.0
2016-Feb-10 17:33N 29°37' W 095°01'1 1.2
2016-Feb-10 16:33N 29°37' W 094°60'5 5.2
2016-Feb-10 15:34N 29°42' W 095°00'6 5.8
2016-Feb-10 14:33N 29°45' W 095°06'0 0.0
2016-Feb-09 18:33N 29°45' W 095°06'4 3.5
2016-Feb-09 17:33N 29°44' W 095°02'4 3.9
2016-Feb-09 16:33N 29°41' W 094°59'  
2016-Feb-06 10:33N 29°22' W 094°55'0 0.0
2016-Feb-06 09:33N 29°22' W 094°55'0 0.2
2016-Feb-06 08:33N 29°22' W 094°55'7 7.1
2016-Feb-06 07:33N 29°21' W 094°47'2 0.3
2016-Feb-05 23:25N 29°21' W 094°44'0 0.2
2016-Feb-05 22:20N 29°21' W 094°44'0 0.1
2016-Feb-05 21:33N 29°21' W 094°44'0 0.0
2016-Feb-05 20:23N 29°21' W 094°44'0 0.0
2016-Feb-05 19:25N 29°21' W 094°44'0 0.0
2016-Feb-05 18:30N 29°21' W 094°44'0 0.0
2016-Feb-05 17:28N 29°21' W 094°44'0 0.0
2016-Feb-05 16:25N 29°21' W 094°44'3 3.6
2016-Feb-05 15:33N 29°21' W 094°48'5 0.2
2016-Feb-04 11:33N 29°23' W 094°53'4 3.8
2016-Feb-04 10:33N 29°22' W 094°49'2 2.3
2016-Feb-04 09:32N 29°21' W 094°47'1111.1
2016-Feb-04 08:33N 29°30' W 094°53'1110.9
2016-Feb-04 07:33N 29°40' W 094°59'8 8.2
2016-Feb-04 06:33N 29°46' W 095°05'6 5.6
2016-Feb-04 05:30N 29°44' W 095°12'2 2.3
2016-Feb-04 04:34N 29°43' W 095°14'0 0.0
2016-Feb-04 03:32N 29°43' W 095°14'0 0.0
2016-Feb-04 02:32N 29°43' W 095°14'0 0.0
2016-Feb-04 01:32N 29°43' W 095°14'0 0.0
2016-Feb-04 00:32N 29°43' W 095°14'0 0.0
2016-Feb-03 23:32N 29°43' W 095°14'0 0.0
2016-Feb-03 22:30N 29°43' W 095°14'0 0.0
2016-Feb-03 21:30N 29°43' W 095°14'0 0.0
2016-Feb-03 20:32N 29°43' W 095°14'0 0.0
2016-Feb-03 19:30N 29°43' W 095°14'0 0.0
2016-Feb-03 18:32N 29°43' W 095°14'0 0.0
2016-Feb-03 17:31N 29°43' W 095°14'0 0.0
2016-Feb-03 16:33N 29°43' W 095°14'0 0.0
2016-Feb-03 15:30N 29°43' W 095°14'0 0.0
2016-Feb-03 14:33N 29°43' W 095°14'0 0.0
2016-Feb-03 13:32N 29°43' W 095°14'0 0.0
2016-Feb-03 12:32N 29°43' W 095°14'0 0.0
2016-Feb-03 11:32N 29°43' W 095°14'0 0.0
2016-Feb-03 10:32N 29°43' W 095°14'0 0.0
2016-Feb-03 09:33N 29°43' W 095°14'4 4.1
2016-Feb-03 08:34N 29°44' W 095°09'5 5.4
2016-Feb-03 07:34N 29°44' W 095°03'7 7.1
2016-Feb-03 06:34N 29°39' W 094°58'1211.7
2016-Feb-03 05:34N 29°29' W 094°51'1010.4
2016-Feb-03 04:33N 29°21' W 094°43'9 7.3
2016-Feb-03 03:21N 29°17' W 094°34'5 4.9
2016-Feb-03 02:22N 29°12' W 094°34'0 0.0
2016-Feb-02 23:14N 29°12' W 094°35'0 0.0
2016-Feb-02 22:30N 29°12' W 094°35'0 0.0
2016-Feb-02 21:31N 29°12' W 094°35'0 0.0
2016-Feb-02 06:22N 29°12' W 094°35'0 0.0
2016-Feb-02 05:32N 29°12' W 094°35'0 0.0
2016-Feb-02 04:04N 29°12' W 094°35'0 0.0
2016-Feb-02 03:33N 29°12' W 094°35'  
Track history (hours):
 
Tides and Currents Weather Stations Pressure Air Temp Water Temp Dewpoint Dewpoint Depression Visibility Wind Speed Wind Dir Waves Ship Positions

Bow Clipper

Last reported at 2016-Feb-12 03:32 UTC. Time now 2016-Feb-12 03:37 UTC.
Position N 29°07' W 094°31'.

Length 188 m; draft 6.1 m.

Type: Ship (hazmat cat B). MMSI: 258946991.

Date/timePositionNaut miles runAvg speedWind from/ knotsBaromVisibWave heightAir tempDewpointWater temp
2016-Feb-12 03:32N 29°07' W 094°31'0 0.0
2016-Feb-12 02:28N 29°07' W 094°31'0 0.0
2016-Feb-12 01:33N 29°07' W 094°31'5 0.4
2016-Feb-11 12:21N 29°12' W 094°31'911.2
2016-Feb-11 11:32N 29°18' W 094°38'1110.6
2016-Feb-11 10:30N 29°23' W 094°49'1010.9
2016-Feb-11 09:33N 29°33' W 094°54'7 7.3
2016-Feb-11 08:33N 29°37' W 095°01'0 0.2
2016-Feb-11 07:32N 29°37' W 095°01'0 0.0
2016-Feb-11 06:33N 29°37' W 095°01'0 0.0
2016-Feb-11 05:32N 29°37' W 095°01'0 0.0
2016-Feb-11 04:33N 29°37' W 095°01'0 0.0
2016-Feb-11 03:33N 29°37' W 095°01'0 0.0
2016-Feb-11 02:30N 29°37' W 095°01'0 0.0
2016-Feb-11 01:33N 29°37' W 095°01'0 0.0
2016-Feb-11 00:33N 29°37' W 095°01'0 0.0
2016-Feb-10 23:33N 29°37' W 095°01'0 0.0
2016-Feb-10 22:33N 29°37' W 095°01'0 0.0
2016-Feb-10 21:33N 29°37' W 095°01'0 0.0
2016-Feb-10 20:33N 29°37' W 095°01'0 0.0
2016-Feb-10 19:30N 29°37' W 095°01'0 0.0
2016-Feb-10 18:33N 29°37' W 095°01'0 0.0
2016-Feb-10 17:33N 29°37' W 095°01'1 1.2
2016-Feb-10 16:33N 29°37' W 094°60'5 5.2
2016-Feb-10 15:34N 29°42' W 095°00'6 5.8
2016-Feb-10 14:33N 29°45' W 095°06'0 0.0
2016-Feb-09 18:33N 29°45' W 095°06'4 3.5
2016-Feb-09 17:33N 29°44' W 095°02'4 3.9
2016-Feb-09 16:33N 29°41' W 094°59'  
2016-Feb-06 10:33N 29°22' W 094°55'0 0.0
2016-Feb-06 09:33N 29°22' W 094°55'0 0.2
2016-Feb-06 08:33N 29°22' W 094°55'7 7.1
2016-Feb-06 07:33N 29°21' W 094°47'2 0.3
2016-Feb-05 23:25N 29°21' W 094°44'0 0.2
2016-Feb-05 22:20N 29°21' W 094°44'0 0.1
2016-Feb-05 21:33N 29°21' W 094°44'0 0.0
2016-Feb-05 20:23N 29°21' W 094°44'0 0.0
2016-Feb-05 19:25N 29°21' W 094°44'0 0.0
2016-Feb-05 18:30N 29°21' W 094°44'0 0.0
2016-Feb-05 17:28N 29°21' W 094°44'0 0.0
2016-Feb-05 16:25N 29°21' W 094°44'3 3.6
2016-Feb-05 15:33N 29°21' W 094°48'5 0.2
2016-Feb-04 11:33N 29°23' W 094°53'4 3.8
2016-Feb-04 10:33N 29°22' W 094°49'2 2.3
2016-Feb-04 09:32N 29°21' W 094°47'1111.1
2016-Feb-04 08:33N 29°30' W 094°53'1110.9
2016-Feb-04 07:33N 29°40' W 094°59'8 8.2
2016-Feb-04 06:33N 29°46' W 095°05'6 5.6
2016-Feb-04 05:30N 29°44' W 095°12'2 2.3
2016-Feb-04 04:34N 29°43' W 095°14'0 0.0
2016-Feb-04 03:32N 29°43' W 095°14'0 0.0
2016-Feb-04 02:32N 29°43' W 095°14'0 0.0
2016-Feb-04 01:32N 29°43' W 095°14'0 0.0
2016-Feb-04 00:32N 29°43' W 095°14'0 0.0
2016-Feb-03 23:32N 29°43' W 095°14'0 0.0
2016-Feb-03 22:30N 29°43' W 095°14'0 0.0
2016-Feb-03 21:30N 29°43' W 095°14'0 0.0
2016-Feb-03 20:32N 29°43' W 095°14'0 0.0
2016-Feb-03 19:30N 29°43' W 095°14'0 0.0
2016-Feb-03 18:32N 29°43' W 095°14'0 0.0
2016-Feb-03 17:31N 29°43' W 095°14'0 0.0
2016-Feb-03 16:33N 29°43' W 095°14'0 0.0
2016-Feb-03 15:30N 29°43' W 095°14'0 0.0
2016-Feb-03 14:33N 29°43' W 095°14'0 0.0
2016-Feb-03 13:32N 29°43' W 095°14'0 0.0
2016-Feb-03 12:32N 29°43' W 095°14'0 0.0
2016-Feb-03 11:32N 29°43' W 095°14'0 0.0
2016-Feb-03 10:32N 29°43' W 095°14'0 0.0
2016-Feb-03 09:33N 29°43' W 095°14'4 4.1
2016-Feb-03 08:34N 29°44' W 095°09'5 5.4
2016-Feb-03 07:34N 29°44' W 095°03'7 7.1
2016-Feb-03 06:34N 29°39' W 094°58'1211.7
2016-Feb-03 05:34N 29°29' W 094°51'1010.4
2016-Feb-03 04:33N 29°21' W 094°43'9 7.3
2016-Feb-03 03:21N 29°17' W 094°34'5 4.9
2016-Feb-03 02:22N 29°12' W 094°34'0 0.0
2016-Feb-02 23:14N 29°12' W 094°35'0 0.0
2016-Feb-02 22:30N 29°12' W 094°35'0 0.0
2016-Feb-02 21:31N 29°12' W 094°35'0 0.0
2016-Feb-02 06:22N 29°12' W 094°35'0 0.0
2016-Feb-02 05:32N 29°12' W 094°35'0 0.0
2016-Feb-02 04:04N 29°12' W 094°35'0 0.0
2016-Feb-02 03:33N 29°12' W 094°35'  

Dump ship's entire track history